createdAt,value
2023-04-06T00:00:05.934Z,3.78
2023-04-06T00:02:55.638Z,3.73
2023-04-06T00:05:42.381Z,3.72
2023-04-06T00:08:28.644Z,3.67
2023-04-06T00:11:14.713Z,3.66
2023-04-06T00:14:00.516Z,3.65
2023-04-06T00:16:46.470Z,3.62
2023-04-06T00:19:32.535Z,3.61
2023-04-06T00:22:18.184Z,3.56
2023-04-06T00:25:04.103Z,3.58
2023-04-06T00:27:50.010Z,3.64
2023-04-06T00:30:37.055Z,3.64
2023-04-06T00:33:24.226Z,3.66
2023-04-06T00:36:10.056Z,3.66
2023-04-06T00:38:56.400Z,3.66
2023-04-06T00:41:47.324Z,3.64
2023-04-06T00:44:33.304Z,3.62
2023-04-06T00:47:19.046Z,3.66
2023-04-06T00:50:05.413Z,3.61
2023-04-06T00:52:51.860Z,3.59
2023-04-06T00:55:43.123Z,3.55
2023-04-06T00:58:29.502Z,3.57
2023-04-06T01:01:24.664Z,3.57
2023-04-06T01:04:13.138Z,3.59
2023-04-06T01:07:01.332Z,3.64
2023-04-06T01:09:55.443Z,3.63
2023-04-06T01:12:44.715Z,3.66
2023-04-06T01:15:40.196Z,3.62
2023-04-06T01:18:29.351Z,3.61
2023-04-06T01:21:29.283Z,3.57
2023-04-06T01:24:36.292Z,3.51
2023-04-06T01:27:22.053Z,3.46
2023-04-06T01:30:28.215Z,3.40
2023-04-06T01:33:18.907Z,3.35
2023-04-06T01:36:20.658Z,3.35
2023-04-06T01:39:13.449Z,3.38
2023-04-06T01:42:00.176Z,3.38
2023-04-06T01:44:46.813Z,3.36
2023-04-06T01:47:34.142Z,3.38
2023-04-06T01:50:23.089Z,3.35
2023-04-06T01:53:09.887Z,3.39
2023-04-06T01:55:57.955Z,3.40
2023-04-06T02:02:00.062Z,3.44
2023-04-06T02:04:47.258Z,3.51
2023-04-06T02:07:33.907Z,3.54
2023-04-06T02:10:20.717Z,3.56
2023-04-06T02:13:06.481Z,3.59
2023-04-06T02:15:53.222Z,3.58
2023-04-06T02:18:39.877Z,3.54
2023-04-06T02:21:25.544Z,3.55
2023-04-06T02:24:11.896Z,3.56
2023-04-06T02:27:01.643Z,3.52
2023-04-06T02:29:47.421Z,3.52
2023-04-06T02:32:37.779Z,3.52
2023-04-06T02:35:27.231Z,3.49
2023-04-06T02:38:14.739Z,3.52
2023-04-06T02:41:00.477Z,3.50
2023-04-06T02:43:48.085Z,3.52
2023-04-06T02:46:43.181Z,3.55
2023-04-06T02:49:29.261Z,3.53
2023-04-06T02:52:19.023Z,3.52
2023-04-06T02:55:06.107Z,3.53
2023-04-06T02:57:52.079Z,3.50
2023-04-06T03:00:41.948Z,3.51
2023-04-06T03:03:28.247Z,3.47
2023-04-06T03:06:15.422Z,3.47
2023-04-06T03:09:03.206Z,3.38
2023-04-06T03:11:51.134Z,3.38
2023-04-06T03:14:37.188Z,3.33
2023-04-06T03:17:23.403Z,3.35
2023-04-06T03:20:09.790Z,3.38
2023-04-06T03:22:56.405Z,3.37
2023-04-06T03:25:47.036Z,3.37
2023-04-06T03:28:36.959Z,3.38
2023-04-06T03:31:25.450Z,3.37
2023-04-06T03:34:17.383Z,3.35
2023-04-06T03:37:09.931Z,3.34
2023-04-06T03:40:04.170Z,3.37
2023-04-06T03:42:50.362Z,3.37
2023-04-06T03:45:36.857Z,3.32
2023-04-06T03:48:24.956Z,3.31
2023-04-06T03:51:11.507Z,3.28
2023-04-06T03:53:57.181Z,3.26
2023-04-06T03:56:42.905Z,3.25
2023-04-06T03:59:28.715Z,3.25
2023-04-06T04:02:14.473Z,3.27
2023-04-06T04:05:00.635Z,3.25
2023-04-06T04:07:47.072Z,3.28
2023-04-06T04:10:33.234Z,3.28
2023-04-06T04:13:19.655Z,3.28
2023-04-06T04:16:08.371Z,3.32
2023-04-06T04:18:55.329Z,3.34
2023-04-06T04:21:47.491Z,3.34
2023-04-06T04:24:37.839Z,3.35
2023-04-06T04:27:23.516Z,3.38
2023-04-06T04:30:11.260Z,3.40
2023-04-06T04:32:57.155Z,3.40
2023-04-06T04:35:44.018Z,3.37
2023-04-06T04:38:39.475Z,3.36
2023-04-06T04:41:25.528Z,3.38
2023-04-06T04:44:11.493Z,3.40
2023-04-06T04:46:57.925Z,3.38
2023-04-06T04:49:52.206Z,3.38
2023-04-06T04:52:42.390Z,3.42
2023-04-06T04:55:36.123Z,3.41
2023-04-06T04:58:23.734Z,3.40
2023-04-06T05:01:15.687Z,3.37
2023-04-06T05:04:03.594Z,3.43
2023-04-06T05:06:49.762Z,3.44
2023-04-06T05:09:37.923Z,3.44
2023-04-06T05:12:24.858Z,3.43
2023-04-06T05:15:21.515Z,3.48
2023-04-06T05:18:11.274Z,3.48
2023-04-06T05:20:57.294Z,3.48
2023-04-06T05:23:51.218Z,3.57
2023-04-06T05:26:37.619Z,3.58
2023-04-06T05:29:30.629Z,3.58
2023-04-06T05:32:16.772Z,3.58
2023-04-06T05:35:04.503Z,3.63
2023-04-06T05:37:50.634Z,3.60
2023-04-06T05:40:39.396Z,3.58
2023-04-06T05:43:29.531Z,3.58
2023-04-06T05:46:19.406Z,3.57
2023-04-06T05:49:06.976Z,3.51
2023-04-06T05:51:54.902Z,3.44
2023-04-06T05:54:41.668Z,3.36
2023-04-06T05:57:27.806Z,3.40
2023-04-06T06:00:15.661Z,3.37
2023-04-06T06:03:13.733Z,3.37
2023-04-06T06:06:05.571Z,3.34
2023-04-06T06:09:09.491Z,3.38
2023-04-06T06:12:01.467Z,3.40
2023-04-06T06:14:48.703Z,3.40
2023-04-06T06:17:37.810Z,3.38
2023-04-06T06:20:25.967Z,3.35
2023-04-06T06:23:12.584Z,3.38
2023-04-06T06:25:59.505Z,3.42
2023-04-06T06:28:46.987Z,3.42
2023-04-06T06:31:33.918Z,3.41
2023-04-06T06:34:19.721Z,3.41
2023-04-06T06:37:06.196Z,3.39
2023-04-06T06:39:53.293Z,3.37
2023-04-06T06:42:40.796Z,3.36
2023-04-06T06:45:36.188Z,3.38
2023-04-06T06:48:21.970Z,3.37
2023-04-06T06:51:07.888Z,3.33
2023-04-06T06:53:53.614Z,3.37
2023-04-06T06:56:40.249Z,3.39
2023-04-06T06:59:26.249Z,3.36
2023-04-06T07:02:13.779Z,3.41
2023-04-06T07:05:01.110Z,3.39
2023-04-06T07:07:49.082Z,3.47
2023-04-06T07:10:34.989Z,3.51
2023-04-06T07:13:25.136Z,3.54
2023-04-06T07:16:14.624Z,3.58
2023-04-06T07:19:00.458Z,3.58
2023-04-06T07:21:46.801Z,3.61
2023-04-06T07:24:32.615Z,3.67
2023-04-06T07:27:19.814Z,3.72
2023-04-06T07:30:06.864Z,3.72
2023-04-06T07:32:53.403Z,3.79
2023-04-06T07:35:39.415Z,3.83
2023-04-06T07:38:26.446Z,3.81
2023-04-06T07:41:12.577Z,3.78
2023-04-06T07:43:59.012Z,3.82
2023-04-06T07:46:45.000Z,3.87
2023-04-06T07:49:31.399Z,3.85
2023-04-06T07:52:18.678Z,3.83
2023-04-06T07:55:05.215Z,3.86
2023-04-06T07:57:51.702Z,3.89
2023-04-06T08:00:37.323Z,3.94
2023-04-06T08:03:26.669Z,3.92
2023-04-06T08:06:12.807Z,3.99
2023-04-06T08:08:58.790Z,4.00
2023-04-06T08:11:45.802Z,3.96
2023-04-06T08:14:32.073Z,3.93
2023-04-06T08:17:18.033Z,3.94
2023-04-06T08:20:04.880Z,3.96
2023-04-06T08:22:53.048Z,4.05
2023-04-06T08:25:39.889Z,4.07
2023-04-06T08:28:25.884Z,4.08
2023-04-06T08:31:11.928Z,4.07
2023-04-06T08:33:57.753Z,4.05
2023-04-06T08:36:43.460Z,4.08
2023-04-06T08:39:31.699Z,4.05
2023-04-06T08:42:22.312Z,4.06
2023-04-06T08:45:10.510Z,4.05
2023-04-06T08:48:00.211Z,4.11
2023-04-06T08:50:49.859Z,4.12
2023-04-06T08:53:35.978Z,4.21
2023-04-06T08:56:23.174Z,4.19
2023-04-06T08:59:10.238Z,4.25
2023-04-06T09:01:56.925Z,4.36
2023-04-06T09:09:44.415Z,4.46
2023-04-06T09:13:08.799Z,4.38
2023-04-06T09:16:09.356Z,4.55
2023-04-06T09:18:55.218Z,4.56
2023-04-06T09:21:41.321Z,4.57
2023-04-06T09:24:27.351Z,4.70
2023-04-06T09:27:13.418Z,4.73
2023-04-06T09:34:43.459Z,4.80
2023-04-06T09:37:29.361Z,4.81
2023-04-06T09:40:23.326Z,4.85
2023-04-06T09:43:10.879Z,4.95
2023-04-06T09:45:57.257Z,5.04
2023-04-06T09:49:56.261Z,5.05
2023-04-06T09:53:00.352Z,5.05
2023-04-06T09:55:47.244Z,5.22
2023-04-06T09:58:35.787Z,5.25
2023-04-06T10:01:24.709Z,5.37
2023-04-06T10:09:00.048Z,5.45
2023-04-06T10:11:50.280Z,5.65
2023-04-06T10:16:00.799Z,5.71
2023-04-06T10:19:14.371Z,5.81
2023-04-06T10:22:01.218Z,5.94
2023-04-06T10:24:47.057Z,5.92
2023-04-06T10:27:33.878Z,5.95
2023-04-06T10:30:19.812Z,5.93
2023-04-06T10:33:21.498Z,5.84
2023-04-06T10:36:23.869Z,5.86
2023-04-06T10:39:09.693Z,5.86
2023-04-06T10:41:56.093Z,5.88
2023-04-06T10:44:54.994Z,5.91
2023-04-06T10:47:41.786Z,6.01
2023-04-06T10:50:30.848Z,6.08
2023-04-06T10:53:23.082Z,6.15
2023-04-06T10:56:15.660Z,6.22
2023-04-06T10:59:01.777Z,6.28
2023-04-06T11:01:47.968Z,6.35
2023-04-06T11:04:33.823Z,6.39
2023-04-06T11:07:25.017Z,6.40
2023-04-06T11:10:20.279Z,6.44
2023-04-06T11:13:09.083Z,6.49
2023-04-06T11:15:55.278Z,6.62
2023-04-06T11:19:07.051Z,6.71
2023-04-06T11:21:53.911Z,6.83
2023-04-06T11:24:39.875Z,6.92
2023-04-06T11:27:26.556Z,6.98
2023-04-06T11:30:12.423Z,7.01
2023-04-06T11:33:03.693Z,7.08
2023-04-06T11:35:50.139Z,7.16
2023-04-06T11:38:41.074Z,7.19
2023-04-06T11:41:30.407Z,7.31
2023-04-06T11:44:16.883Z,7.42
2023-04-06T11:47:04.184Z,7.51
2023-04-06T11:49:50.072Z,7.62
2023-04-06T11:52:36.141Z,7.74
2023-04-06T11:55:22.019Z,7.89
2023-04-06T11:58:08.248Z,8.04
2023-04-06T12:00:54.100Z,8.19
2023-04-06T12:03:40.370Z,8.32
2023-04-06T12:06:27.196Z,8.43
2023-04-06T12:09:13.149Z,8.53
2023-04-06T12:11:59.162Z,8.62
2023-04-06T12:14:45.045Z,8.68
2023-04-06T12:17:30.971Z,8.71
2023-04-06T12:20:25.819Z,8.71
2023-04-06T12:23:12.412Z,8.74
2023-04-06T12:25:58.695Z,8.76
2023-04-06T12:28:45.972Z,8.69
2023-04-06T12:31:32.041Z,8.61
2023-04-06T12:34:17.822Z,8.48
2023-04-06T12:37:03.567Z,8.30
2023-04-06T12:39:49.539Z,8.13
2023-04-06T12:42:35.806Z,7.97
2023-04-06T12:45:21.563Z,7.89
2023-04-06T12:48:07.974Z,7.86
2023-04-06T12:51:01.705Z,7.81
2023-04-06T12:53:47.836Z,7.80
2023-04-06T12:56:33.734Z,7.78
2023-04-06T12:59:20.050Z,7.77
2023-04-06T13:02:06.589Z,7.71
2023-04-06T13:04:52.631Z,7.68
2023-04-06T13:07:38.476Z,7.68
2023-04-06T13:10:24.376Z,7.66
2023-04-06T13:13:10.398Z,7.60
2023-04-06T13:16:00.755Z,7.62
2023-04-06T13:18:46.437Z,7.63
2023-04-06T13:21:32.737Z,7.68
2023-04-06T13:24:18.516Z,7.67
2023-04-06T13:27:04.497Z,7.64
2023-04-06T13:29:50.925Z,7.62
2023-04-06T13:32:37.520Z,7.66
2023-04-06T13:35:23.771Z,7.68
2023-04-06T13:38:09.905Z,7.69
2023-04-06T13:40:55.833Z,7.70
2023-04-06T13:43:41.890Z,7.68
2023-04-06T13:46:28.880Z,7.63
2023-04-06T13:49:16.556Z,7.60
2023-04-06T13:52:02.468Z,7.56
2023-04-06T13:54:48.422Z,7.46
2023-04-06T13:57:34.502Z,7.43
2023-04-06T14:00:20.670Z,7.39
2023-04-06T14:03:06.920Z,7.32
2023-04-06T14:05:52.793Z,7.32
2023-04-06T14:08:38.587Z,7.26
2023-04-06T14:11:24.587Z,7.22
2023-04-06T14:14:10.866Z,7.18
2023-04-06T14:16:57.113Z,7.15
2023-04-06T14:19:44.205Z,7.11
2023-04-06T14:25:17.490Z,6.98
2023-04-06T14:28:03.555Z,6.94
2023-04-06T14:30:49.371Z,6.93
2023-04-06T14:33:35.384Z,6.85
2023-04-06T14:36:21.380Z,6.88
2023-04-06T14:39:08.111Z,6.81
2023-04-06T14:41:54.221Z,6.77
2023-04-06T14:44:43.905Z,6.69
2023-04-06T14:47:29.764Z,6.67
2023-04-06T14:50:15.844Z,6.61
2023-04-06T14:53:02.064Z,6.60
2023-04-06T14:55:48.256Z,6.55
2023-04-06T14:58:36.948Z,6.52
2023-04-06T15:01:23.046Z,6.54
2023-04-06T15:04:09.179Z,6.54
2023-04-06T15:06:55.873Z,6.55
2023-04-06T15:09:41.961Z,6.55
2023-04-06T15:12:27.686Z,6.60
2023-04-06T15:15:13.608Z,6.56
2023-04-06T15:18:03.480Z,6.57
2023-04-06T15:20:49.313Z,6.55
2023-04-06T15:23:37.910Z,6.55
2023-04-06T15:26:24.030Z,6.55
2023-04-06T15:29:09.654Z,6.53
2023-04-06T15:31:55.533Z,6.60
2023-04-06T15:34:41.268Z,6.64
2023-04-06T15:37:28.200Z,6.72
2023-04-06T15:40:16.625Z,6.76
2023-04-06T15:43:02.628Z,6.80
2023-04-06T15:45:48.671Z,6.85
2023-04-06T15:48:35.076Z,6.87
2023-04-06T15:51:21.254Z,6.86
2023-04-06T15:54:07.388Z,6.89
2023-04-06T15:56:53.507Z,6.91
2023-04-06T15:59:39.610Z,6.89
2023-04-06T16:02:26.281Z,6.83
2023-04-06T16:05:12.148Z,6.82
2023-04-06T16:07:58.443Z,6.79
2023-04-06T16:10:44.483Z,6.80
2023-04-06T16:13:30.357Z,6.78
2023-04-06T16:16:16.589Z,6.80
2023-04-06T16:19:02.694Z,6.77
2023-04-06T16:21:48.481Z,6.80
2023-04-06T16:24:34.307Z,6.81
2023-04-06T16:27:20.616Z,6.79
2023-04-06T16:30:07.870Z,6.76
2023-04-06T16:32:53.916Z,6.72
2023-04-06T16:35:46.699Z,6.64
2023-04-06T16:38:35.696Z,6.67
2023-04-06T16:41:22.271Z,6.63
2023-04-06T16:44:09.241Z,6.58
2023-04-06T16:46:56.616Z,6.56
2023-04-06T16:49:45.962Z,6.49
2023-04-06T16:52:31.777Z,6.43
2023-04-06T16:55:17.767Z,6.38
2023-04-06T16:58:03.527Z,6.34
2023-04-06T17:00:49.205Z,6.32
2023-04-06T17:03:35.711Z,6.33
2023-04-06T17:06:22.073Z,6.33
2023-04-06T17:09:08.995Z,6.37
2023-04-06T17:11:54.746Z,6.39
2023-04-06T17:14:40.484Z,6.37
2023-04-06T17:17:26.523Z,6.38
2023-04-06T17:20:12.386Z,6.35
2023-04-06T17:22:58.066Z,6.30
2023-04-06T17:25:43.851Z,6.26
2023-04-06T17:28:29.735Z,6.22
2023-04-06T17:31:15.992Z,6.19
2023-04-06T17:34:02.395Z,6.17
2023-04-06T17:36:48.724Z,6.12
2023-04-06T17:39:34.937Z,6.04
2023-04-06T17:42:20.680Z,5.97
2023-04-06T17:45:07.408Z,5.92
2023-04-06T17:47:53.285Z,5.84
2023-04-06T17:50:39.509Z,5.81
2023-04-06T17:53:25.772Z,5.73
2023-04-06T17:56:11.722Z,5.74
2023-04-06T17:58:58.069Z,5.72
2023-04-06T18:01:44.339Z,5.71
2023-04-06T18:04:30.438Z,5.64
2023-04-06T18:07:16.537Z,5.65
2023-04-06T18:10:02.405Z,5.58
2023-04-06T18:12:48.443Z,5.55
2023-04-06T18:15:38.425Z,5.51
2023-04-06T18:18:24.839Z,5.47
2023-04-06T18:21:10.946Z,5.46
2023-04-06T18:23:56.928Z,5.42
2023-04-06T18:26:42.723Z,5.41
2023-04-06T18:29:28.627Z,5.38
2023-04-06T18:32:16.593Z,5.34
2023-04-06T18:35:02.963Z,5.27
2023-04-06T18:37:49.023Z,5.26
2023-04-06T18:40:38.616Z,5.20
2023-04-06T18:43:29.029Z,5.13
2023-04-06T18:46:17.071Z,5.09
2023-04-06T18:49:11.746Z,5.08
2023-04-06T18:51:59.426Z,5.04
2023-04-06T18:54:45.252Z,5.01
2023-04-06T18:57:31.404Z,4.94
2023-04-06T19:00:17.752Z,4.92
2023-04-06T19:03:04.118Z,4.84
2023-04-06T19:05:50.019Z,4.78
2023-04-06T19:08:35.818Z,4.71
2023-04-06T19:11:23.310Z,4.61
2023-04-06T19:14:09.219Z,4.59
2023-04-06T19:16:57.765Z,4.54
2023-04-06T19:19:45.400Z,4.46
2023-04-06T19:22:31.215Z,4.42
2023-04-06T19:25:21.439Z,4.40
2023-04-06T19:28:08.983Z,4.33
2023-04-06T19:30:56.625Z,4.28
2023-04-06T19:33:42.848Z,4.22
2023-04-06T19:36:29.504Z,4.20
2023-04-06T19:39:17.433Z,4.16
2023-04-06T19:42:03.557Z,4.14
2023-04-06T19:44:53.613Z,4.09
2023-04-06T19:47:39.640Z,4.04
2023-04-06T19:50:25.430Z,3.99
2023-04-06T19:53:11.159Z,3.97
2023-04-06T19:55:56.956Z,4.00
2023-04-06T19:58:43.149Z,3.98
2023-04-06T20:01:29.042Z,3.99
2023-04-06T20:04:15.041Z,3.99
2023-04-06T20:07:02.512Z,4.06
2023-04-06T20:09:48.172Z,4.04
2023-04-06T20:12:34.491Z,4.04
2023-04-06T20:15:20.538Z,4.08
2023-04-06T20:18:06.310Z,4.10
2023-04-06T20:20:52.275Z,4.15
2023-04-06T20:23:38.191Z,4.18
2023-04-06T20:26:24.071Z,4.19
2023-04-06T20:29:09.773Z,4.17
2023-04-06T20:31:55.875Z,4.16
2023-04-06T20:34:42.120Z,4.17
2023-04-06T20:37:28.057Z,4.14
2023-04-06T20:40:14.145Z,4.06
2023-04-06T20:43:00.945Z,3.97
2023-04-06T20:45:47.117Z,3.97
2023-04-06T20:48:36.327Z,3.91
2023-04-06T20:51:25.797Z,3.95
2023-04-06T20:54:11.976Z,3.92
2023-04-06T20:57:00.026Z,3.91
2023-04-06T20:59:45.992Z,3.90
2023-04-06T21:02:33.128Z,3.86
2023-04-06T21:05:20.942Z,3.86
2023-04-06T21:08:07.119Z,3.80
2023-04-06T21:10:52.950Z,3.77
2023-04-06T21:13:38.756Z,3.74
2023-04-06T21:16:24.535Z,3.69
2023-04-06T21:19:10.615Z,3.74
2023-04-06T21:21:56.507Z,3.72
2023-04-06T21:24:42.670Z,3.76
2023-04-06T21:27:30.023Z,3.73
2023-04-06T21:30:16.006Z,3.76
2023-04-06T21:33:01.817Z,3.75
2023-04-06T21:35:47.726Z,3.77
2023-04-06T21:38:35.181Z,3.81
2023-04-06T21:41:21.978Z,3.81
2023-04-06T21:44:08.432Z,3.82
2023-04-06T21:46:54.445Z,3.84
2023-04-06T21:49:40.333Z,3.87
2023-04-06T21:52:26.224Z,3.83
2023-04-06T21:55:12.206Z,3.84
2023-04-06T21:57:58.305Z,3.82
2023-04-06T22:00:44.364Z,3.79
2023-04-06T22:03:30.610Z,3.78
2023-04-06T22:06:16.468Z,3.83
2023-04-06T22:09:02.105Z,3.85
2023-04-06T22:11:47.910Z,3.91
2023-04-06T22:14:33.832Z,3.95
2023-04-06T22:17:19.749Z,3.98
2023-04-06T22:20:06.336Z,3.98
2023-04-06T22:22:52.348Z,3.94
2023-04-06T22:25:40.284Z,3.94
2023-04-06T22:28:36.354Z,3.93
2023-04-06T22:31:22.352Z,3.97
2023-04-06T22:34:08.260Z,4.00
2023-04-06T22:36:54.283Z,4.00
2023-04-06T22:39:42.138Z,4.06
2023-04-06T22:42:27.837Z,4.06
2023-04-06T22:45:13.776Z,4.05
2023-04-06T22:47:59.518Z,3.98
2023-04-06T22:50:45.333Z,3.92
2023-04-06T22:53:31.044Z,3.90
2023-04-06T22:56:16.768Z,3.89
2023-04-06T22:59:02.538Z,3.81
2023-04-06T23:01:48.339Z,3.75
2023-04-06T23:04:34.580Z,3.70
2023-04-06T23:07:20.301Z,3.72
2023-04-06T23:10:06.381Z,3.72
2023-04-06T23:12:52.372Z,3.69
2023-04-06T23:15:38.090Z,3.71
2023-04-06T23:18:23.772Z,3.69
2023-04-06T23:21:09.780Z,3.70
2023-04-06T23:23:55.513Z,3.67
2023-04-06T23:26:41.132Z,3.67
2023-04-06T23:29:26.880Z,3.63
2023-04-06T23:32:12.842Z,3.60
2023-04-06T23:34:58.705Z,3.57
2023-04-06T23:37:44.267Z,3.55
2023-04-06T23:40:30.184Z,3.52
2023-04-06T23:43:16.581Z,3.51
2023-04-06T23:46:02.508Z,3.48
2023-04-06T23:48:48.407Z,3.42
2023-04-06T23:51:34.400Z,3.42
2023-04-06T23:54:19.986Z,3.36
2023-04-06T23:57:05.621Z,3.35
2023-04-06T23:59:51.426Z,3.30
